sensor_id;sensor_type;location;lat;lon;timestamp;temperature;humidity
49861;DHT22;35761;48.826;9.238;2023-04-01T00:00:20;8.80;51.90
49861;DHT22;35761;48.826;9.238;2023-04-01T00:02:51;8.80;51.90
49861;DHT22;35761;48.826;9.238;2023-04-01T00:05:22;8.80;52.00
49861;DHT22;35761;48.826;9.238;2023-04-01T00:07:53;8.80;52.10
49861;DHT22;35761;48.826;9.238;2023-04-01T00:10:24;8.70;52.50
49861;DHT22;35761;48.826;9.238;2023-04-01T00:12:57;8.70;52.90
49861;DHT22;35761;48.826;9.238;2023-04-01T00:15:27;8.70;53.20
49861;DHT22;35761;48.826;9.238;2023-04-01T00:17:58;8.70;53.10
49861;DHT22;35761;48.826;9.238;2023-04-01T00:20:29;8.70;53.10
49861;DHT22;35761;48.826;9.238;2023-04-01T00:23:00;8.80;53.20
49861;DHT22;35761;48.826;9.238;2023-04-01T00:25:31;8.70;54.10
49861;DHT22;35761;48.826;9.238;2023-04-01T00:28:04;8.70;53.70
49861;DHT22;35761;48.826;9.238;2023-04-01T00:30:35;8.70;53.70
49861;DHT22;35761;48.826;9.238;2023-04-01T00:33:06;8.70;54.00
49861;DHT22;35761;48.826;9.238;2023-04-01T00:35:37;8.80;53.70
49861;DHT22;35761;48.826;9.238;2023-04-01T00:38:07;8.80;53.40
49861;DHT22;35761;48.826;9.238;2023-04-01T00:40:40;8.70;53.40
49861;DHT22;35761;48.826;9.238;2023-04-01T00:43:16;8.70;53.60
49861;DHT22;35761;48.826;9.238;2023-04-01T00:45:49;8.70;54.00
49861;DHT22;35761;48.826;9.238;2023-04-01T00:48:22;8.80;52.80
49861;DHT22;35761;48.826;9.238;2023-04-01T00:50:59;8.80;52.90
49861;DHT22;35761;48.826;9.238;2023-04-01T00:53:36;8.80;53.30
49861;DHT22;35761;48.826;9.238;2023-04-01T00:56:11;8.80;52.80
49861;DHT22;35761;48.826;9.238;2023-04-01T00:58:48;8.80;53.30
49861;DHT22;35761;48.826;9.238;2023-04-01T01:01:21;8.80;53.40
49861;DHT22;35761;48.826;9.238;2023-04-01T01:03:53;8.80;53.80
49861;DHT22;35761;48.826;9.238;2023-04-01T01:06:30;8.80;54.40
49861;DHT22;35761;48.826;9.238;2023-04-01T01:09:16;8.80;53.90
49861;DHT22;35761;48.826;9.238;2023-04-01T01:12:02;8.80;54.00
49861;DHT22;35761;48.826;9.238;2023-04-01T01:14:48;8.80;53.80
49861;DHT22;35761;48.826;9.238;2023-04-01T01:17:33;8.80;54.80
49861;DHT22;35761;48.826;9.238;2023-04-01T01:26:59;8.70;56.20
49861;DHT22;35761;48.826;9.238;2023-04-01T01:29:52;8.70;56.30
49861;DHT22;35761;48.826;9.238;2023-04-01T01:32:55;8.70;56.40
49861;DHT22;35761;48.826;9.238;2023-04-01T01:35:42;8.70;56.00
49861;DHT22;35761;48.826;9.238;2023-04-01T01:38:19;8.70;56.40
49861;DHT22;35761;48.826;9.238;2023-04-01T01:41:04;8.70;57.10
49861;DHT22;35761;48.826;9.238;2023-04-01T01:43:39;8.70;56.50
49861;DHT22;35761;48.826;9.238;2023-04-01T01:46:17;8.70;56.10
49861;DHT22;35761;48.826;9.238;2023-04-01T01:48:50;8.70;57.00
49861;DHT22;35761;48.826;9.238;2023-04-01T01:51:24;8.70;57.50
49861;DHT22;35761;48.826;9.238;2023-04-01T01:53:57;8.70;58.50
49861;DHT22;35761;48.826;9.238;2023-04-01T01:56:29;8.70;58.80
49861;DHT22;35761;48.826;9.238;2023-04-01T01:59:03;8.60;60.00
49861;DHT22;35761;48.826;9.238;2023-04-01T02:01:39;8.60;60.10
49861;DHT22;35761;48.826;9.238;2023-04-01T02:04:14;8.50;62.30
49861;DHT22;35761;48.826;9.238;2023-04-01T02:06:55;8.50;62.20
49861;DHT22;35761;48.826;9.238;2023-04-01T02:09:27;8.50;62.80
49861;DHT22;35761;48.826;9.238;2023-04-01T02:12:04;8.40;63.70
49861;DHT22;35761;48.826;9.238;2023-04-01T02:14:41;8.40;62.40
49861;DHT22;35761;48.826;9.238;2023-04-01T02:17:16;8.40;62.00
49861;DHT22;35761;48.826;9.238;2023-04-01T02:19:50;8.40;61.80
49861;DHT22;35761;48.826;9.238;2023-04-01T02:22:29;8.40;62.10
49861;DHT22;35761;48.826;9.238;2023-04-01T02:25:05;8.40;62.20
49861;DHT22;35761;48.826;9.238;2023-04-01T02:27:38;8.40;62.20
49861;DHT22;35761;48.826;9.238;2023-04-01T02:30:10;8.40;62.10
49861;DHT22;35761;48.826;9.238;2023-04-01T02:32:41;8.40;62.20
49861;DHT22;35761;48.826;9.238;2023-04-01T02:35:14;8.40;61.60
49861;DHT22;35761;48.826;9.238;2023-04-01T02:37:49;8.30;62.40
49861;DHT22;35761;48.826;9.238;2023-04-01T02:40:22;8.30;62.40
49861;DHT22;35761;48.826;9.238;2023-04-01T02:42:53;8.30;60.60
49861;DHT22;35761;48.826;9.238;2023-04-01T02:45:23;8.30;60.20
49861;DHT22;35761;48.826;9.238;2023-04-01T02:47:53;8.30;59.50
49861;DHT22;35761;48.826;9.238;2023-04-01T02:50:24;8.30;59.10
49861;DHT22;35761;48.826;9.238;2023-04-01T02:52:57;8.40;58.40
49861;DHT22;35761;48.826;9.238;2023-04-01T02:55:28;8.30;58.70
49861;DHT22;35761;48.826;9.238;2023-04-01T02:57:58;8.30;59.00
49861;DHT22;35761;48.826;9.238;2023-04-01T03:00:29;8.30;58.70
49861;DHT22;35761;48.826;9.238;2023-04-01T03:03:00;8.30;58.20
49861;DHT22;35761;48.826;9.238;2023-04-01T03:05:31;8.30;57.20
49861;DHT22;35761;48.826;9.238;2023-04-01T03:08:04;8.30;57.00
49861;DHT22;35761;48.826;9.238;2023-04-01T03:10:35;8.30;57.00
49861;DHT22;35761;48.826;9.238;2023-04-01T03:13:05;8.30;56.50
49861;DHT22;35761;48.826;9.238;2023-04-01T03:15:36;8.30;56.50
49861;DHT22;35761;48.826;9.238;2023-04-01T03:18:07;8.20;56.50
49861;DHT22;35761;48.826;9.238;2023-04-01T03:20:37;8.20;56.80
49861;DHT22;35761;48.826;9.238;2023-04-01T03:23:10;8.30;56.40
49861;DHT22;35761;48.826;9.238;2023-04-01T03:25:41;8.20;56.50
49861;DHT22;35761;48.826;9.238;2023-04-01T03:28:11;8.20;55.90
49861;DHT22;35761;48.826;9.238;2023-04-01T03:30:42;8.20;56.10
49861;DHT22;35761;48.826;9.238;2023-04-01T03:33:13;8.20;55.70
49861;DHT22;35761;48.826;9.238;2023-04-01T03:35:44;8.20;55.80
49861;DHT22;35761;48.826;9.238;2023-04-01T03:38:17;8.20;55.40
49861;DHT22;35761;48.826;9.238;2023-04-01T03:40:47;8.20;55.60
49861;DHT22;35761;48.826;9.238;2023-04-01T03:43:18;8.20;55.50
49861;DHT22;35761;48.826;9.238;2023-04-01T03:45:50;8.10;55.30
49861;DHT22;35761;48.826;9.238;2023-04-01T03:48:21;8.10;55.80
49861;DHT22;35761;48.826;9.238;2023-04-01T03:50:52;8.10;55.80
49861;DHT22;35761;48.826;9.238;2023-04-01T03:53:26;8.10;55.00
49861;DHT22;35761;48.826;9.238;2023-04-01T03:56:03;8.10;55.10
49861;DHT22;35761;48.826;9.238;2023-04-01T03:58:36;8.10;54.80
49861;DHT22;35761;48.826;9.238;2023-04-01T04:01:16;8.10;54.40
49861;DHT22;35761;48.826;9.238;2023-04-01T04:03:51;8.10;54.20
49861;DHT22;35761;48.826;9.238;2023-04-01T04:06:23;8.10;54.00
49861;DHT22;35761;48.826;9.238;2023-04-01T04:08:57;8.10;53.70
49861;DHT22;35761;48.826;9.238;2023-04-01T04:11:31;8.10;53.50
49861;DHT22;35761;48.826;9.238;2023-04-01T04:14:02;8.00;53.40
49861;DHT22;35761;48.826;9.238;2023-04-01T04:16:34;8.10;53.30
49861;DHT22;35761;48.826;9.238;2023-04-01T04:19:06;8.10;52.80
49861;DHT22;35761;48.826;9.238;2023-04-01T04:21:38;8.10;53.10
49861;DHT22;35761;48.826;9.238;2023-04-01T04:24:12;8.10;52.80
49861;DHT22;35761;48.826;9.238;2023-04-01T04:27:05;8.10;52.90
49861;DHT22;35761;48.826;9.238;2023-04-01T04:29:43;8.10;52.50
49861;DHT22;35761;48.826;9.238;2023-04-01T04:32:13;8.10;51.50
49861;DHT22;35761;48.826;9.238;2023-04-01T04:34:44;8.10;51.70
49861;DHT22;35761;48.826;9.238;2023-04-01T04:37:14;8.00;51.80
49861;DHT22;35761;48.826;9.238;2023-04-01T04:39:47;8.00;52.10
49861;DHT22;35761;48.826;9.238;2023-04-01T04:42:18;8.00;51.80
49861;DHT22;35761;48.826;9.238;2023-04-01T04:44:53;7.90;51.90
49861;DHT22;35761;48.826;9.238;2023-04-01T04:47:23;8.00;51.90
49861;DHT22;35761;48.826;9.238;2023-04-01T04:49:53;8.00;51.80
49861;DHT22;35761;48.826;9.238;2023-04-01T04:52:24;7.90;52.30
49861;DHT22;35761;48.826;9.238;2023-04-01T04:54:57;7.90;52.30
49861;DHT22;35761;48.826;9.238;2023-04-01T04:57:28;7.90;52.40
49861;DHT22;35761;48.826;9.238;2023-04-01T04:59:58;7.80;52.90
49861;DHT22;35761;48.826;9.238;2023-04-01T05:02:53;7.80;53.30
49861;DHT22;35761;48.826;9.238;2023-04-01T05:05:23;7.80;53.40
49861;DHT22;35761;48.826;9.238;2023-04-01T05:07:54;7.70;53.90
49861;DHT22;35761;48.826;9.238;2023-04-01T05:10:27;7.80;54.10
49861;DHT22;35761;48.826;9.238;2023-04-01T05:12:59;7.70;54.50
49861;DHT22;35761;48.826;9.238;2023-04-01T05:15:29;7.80;54.80
49861;DHT22;35761;48.826;9.238;2023-04-01T05:18:01;7.80;55.10
49861;DHT22;35761;48.826;9.238;2023-04-01T05:20:32;7.80;55.10
49861;DHT22;35761;48.826;9.238;2023-04-01T05:23:03;7.80;55.00
49861;DHT22;35761;48.826;9.238;2023-04-01T05:25:37;7.80;54.80
49861;DHT22;35761;48.826;9.238;2023-04-01T05:28:08;7.80;54.80
49861;DHT22;35761;48.826;9.238;2023-04-01T05:30:40;7.80;54.50
49861;DHT22;35761;48.826;9.238;2023-04-01T05:33:25;7.90;54.50
49861;DHT22;35761;48.826;9.238;2023-04-01T05:35:56;7.80;54.80
49861;DHT22;35761;48.826;9.238;2023-04-01T05:38:26;7.80;54.60
49861;DHT22;35761;48.826;9.238;2023-04-01T05:41:02;7.80;55.30
49861;DHT22;35761;48.826;9.238;2023-04-01T05:43:36;7.90;55.10
49861;DHT22;35761;48.826;9.238;2023-04-01T05:46:27;7.90;55.10
49861;DHT22;35761;48.826;9.238;2023-04-01T05:49:07;8.00;54.80
49861;DHT22;35761;48.826;9.238;2023-04-01T05:51:38;8.00;54.90
49861;DHT22;35761;48.826;9.238;2023-04-01T05:54:09;8.00;54.90
49861;DHT22;35761;48.826;9.238;2023-04-01T05:56:42;8.00;54.70
49861;DHT22;35761;48.826;9.238;2023-04-01T05:59:15;8.00;54.50
49861;DHT22;35761;48.826;9.238;2023-04-01T06:01:45;8.00;53.90
49861;DHT22;35761;48.826;9.238;2023-04-01T06:04:17;8.10;53.30
49861;DHT22;35761;48.826;9.238;2023-04-01T06:06:48;8.10;53.50
49861;DHT22;35761;48.826;9.238;2023-04-01T06:09:21;8.20;52.90
49861;DHT22;35761;48.826;9.238;2023-04-01T06:12:17;8.20;52.70
49861;DHT22;35761;48.826;9.238;2023-04-01T06:15:07;8.20;52.40
49861;DHT22;35761;48.826;9.238;2023-04-01T06:18:09;8.30;51.60
49861;DHT22;35761;48.826;9.238;2023-04-01T06:21:11;8.40;50.70
49861;DHT22;35761;48.826;9.238;2023-04-01T06:24:12;8.30;49.70
49861;DHT22;35761;48.826;9.238;2023-04-01T06:26:57;8.40;50.60
49861;DHT22;35761;48.826;9.238;2023-04-01T06:29:50;8.40;48.80
49861;DHT22;35761;48.826;9.238;2023-04-01T06:32:47;8.50;48.60
49861;DHT22;35761;48.826;9.238;2023-04-01T06:35:35;8.50;48.70
49861;DHT22;35761;48.826;9.238;2023-04-01T06:38:40;8.50;47.40
49861;DHT22;35761;48.826;9.238;2023-04-01T06:41:29;8.60;48.00
49861;DHT22;35761;48.826;9.238;2023-04-01T06:44:20;8.70;47.90
49861;DHT22;35761;48.826;9.238;2023-04-01T06:47:25;8.70;47.40
49861;DHT22;35761;48.826;9.238;2023-04-01T06:50:24;8.70;47.10
49861;DHT22;35761;48.826;9.238;2023-04-01T06:53:19;8.70;46.70
49861;DHT22;35761;48.826;9.238;2023-04-01T06:56:32;8.80;46.80
49861;DHT22;35761;48.826;9.238;2023-04-01T06:59:15;8.80;46.50
49861;DHT22;35761;48.826;9.238;2023-04-01T07:01:51;8.80;47.20
49861;DHT22;35761;48.826;9.238;2023-04-01T07:04:28;8.80;47.30
49861;DHT22;35761;48.826;9.238;2023-04-01T07:07:03;8.90;47.30
49861;DHT22;35761;48.826;9.238;2023-04-01T07:09:46;8.80;47.90
49861;DHT22;35761;48.826;9.238;2023-04-01T07:12:48;8.80;47.00
49861;DHT22;35761;48.826;9.238;2023-04-01T07:15:42;8.90;47.70
49861;DHT22;35761;48.826;9.238;2023-04-01T07:18:16;8.90;47.40
49861;DHT22;35761;48.826;9.238;2023-04-01T07:20:52;8.90;47.80
49861;DHT22;35761;48.826;9.238;2023-04-01T07:23:26;8.90;47.50
49861;DHT22;35761;48.826;9.238;2023-04-01T07:26:20;8.90;47.30
49861;DHT22;35761;48.826;9.238;2023-04-01T07:29:01;8.90;47.70
49861;DHT22;35761;48.826;9.238;2023-04-01T07:31:50;8.90;47.90
49861;DHT22;35761;48.826;9.238;2023-04-01T07:34:37;9.00;48.10
49861;DHT22;35761;48.826;9.238;2023-04-01T07:37:25;8.90;47.90
49861;DHT22;35761;48.826;9.238;2023-04-01T07:40:07;9.00;48.10
49861;DHT22;35761;48.826;9.238;2023-04-01T07:42:57;9.00;47.70
49861;DHT22;35761;48.826;9.238;2023-04-01T07:45:50;8.90;48.10
49861;DHT22;35761;48.826;9.238;2023-04-01T07:48:32;9.00;48.20
49861;DHT22;35761;48.826;9.238;2023-04-01T07:51:11;8.90;48.10
49861;DHT22;35761;48.826;9.238;2023-04-01T07:53:58;9.00;48.50
49861;DHT22;35761;48.826;9.238;2023-04-01T07:56:38;9.00;48.50
49861;DHT22;35761;48.826;9.238;2023-04-01T07:59:24;9.00;47.20
49861;DHT22;35761;48.826;9.238;2023-04-01T08:02:06;9.10;47.30
49861;DHT22;35761;48.826;9.238;2023-04-01T08:04:55;9.10;47.70
49861;DHT22;35761;48.826;9.238;2023-04-01T08:07:36;9.10;47.40
49861;DHT22;35761;48.826;9.238;2023-04-01T08:10:39;9.10;46.40
49861;DHT22;35761;48.826;9.238;2023-04-01T08:13:53;9.10;46.70
49861;DHT22;35761;48.826;9.238;2023-04-01T08:16:51;9.20;46.60
49861;DHT22;35761;48.826;9.238;2023-04-01T08:19:50;9.20;47.10
49861;DHT22;35761;48.826;9.238;2023-04-01T08:22:34;9.20;46.80
49861;DHT22;35761;48.826;9.238;2023-04-01T08:25:20;9.30;47.00
49861;DHT22;35761;48.826;9.238;2023-04-01T08:28:00;9.30;46.70
49861;DHT22;35761;48.826;9.238;2023-04-01T08:30:40;9.30;47.20
49861;DHT22;35761;48.826;9.238;2023-04-01T08:33:19;9.30;47.60
49861;DHT22;35761;48.826;9.238;2023-04-01T08:36:01;9.40;47.10
49861;DHT22;35761;48.826;9.238;2023-04-01T08:38:39;9.30;47.00
49861;DHT22;35761;48.826;9.238;2023-04-01T08:48:13;9.30;50.60
49861;DHT22;35761;48.826;9.238;2023-04-01T08:51:22;9.30;51.30
49861;DHT22;35761;48.826;9.238;2023-04-01T08:54:20;9.20;54.00
49861;DHT22;35761;48.826;9.238;2023-04-01T08:57:06;9.10;55.90
49861;DHT22;35761;48.826;9.238;2023-04-01T09:00:01;9.00;56.00
49861;DHT22;35761;48.826;9.238;2023-04-01T09:03:26;8.90;55.70
49861;DHT22;35761;48.826;9.238;2023-04-01T09:06:26;8.90;56.80
49861;DHT22;35761;48.826;9.238;2023-04-01T09:09:42;8.80;58.20
49861;DHT22;35761;48.826;9.238;2023-04-01T09:12:31;8.80;55.60
49861;DHT22;35761;48.826;9.238;2023-04-01T09:15:53;8.80;56.90
49861;DHT22;35761;48.826;9.238;2023-04-01T09:18:49;8.90;56.60
49861;DHT22;35761;48.826;9.238;2023-04-01T09:21:42;8.90;55.20
49861;DHT22;35761;48.826;9.238;2023-04-01T09:24:40;8.90;54.00
49861;DHT22;35761;48.826;9.238;2023-04-01T09:27:30;8.90;54.30
49861;DHT22;35761;48.826;9.238;2023-04-01T09:30:31;9.00;55.00
49861;DHT22;35761;48.826;9.238;2023-04-01T09:36:44;9.10;52.70
49861;DHT22;35761;48.826;9.238;2023-04-01T09:39:36;9.10;52.20
49861;DHT22;35761;48.826;9.238;2023-04-01T09:42:38;9.20;51.00
49861;DHT22;35761;48.826;9.238;2023-04-01T09:45:34;9.30;49.80
49861;DHT22;35761;48.826;9.238;2023-04-01T09:48:17;9.30;50.00
49861;DHT22;35761;48.826;9.238;2023-04-01T09:51:01;9.30;50.10
49861;DHT22;35761;48.826;9.238;2023-04-01T09:53:47;9.40;50.30
49861;DHT22;35761;48.826;9.238;2023-04-01T10:00:19;9.30;48.30
49861;DHT22;35761;48.826;9.238;2023-04-01T10:10:10;9.40;47.40
49861;DHT22;35761;48.826;9.238;2023-04-01T10:13:33;9.40;47.80
49861;DHT22;35761;48.826;9.238;2023-04-01T10:16:22;9.40;45.50
49861;DHT22;35761;48.826;9.238;2023-04-01T10:19:20;9.50;46.00
49861;DHT22;35761;48.826;9.238;2023-04-01T10:22:29;9.50;44.80
49861;DHT22;35761;48.826;9.238;2023-04-01T10:28:55;9.60;45.10
49861;DHT22;35761;48.826;9.238;2023-04-01T10:32:05;9.60;44.30
49861;DHT22;35761;48.826;9.238;2023-04-01T10:38:38;9.70;43.30
49861;DHT22;35761;48.826;9.238;2023-04-01T10:45:45;9.70;44.90
49861;DHT22;35761;48.826;9.238;2023-04-01T10:52:21;9.70;43.10
49861;DHT22;35761;48.826;9.238;2023-04-01T10:55:45;9.70;44.00
49861;DHT22;35761;48.826;9.238;2023-04-01T11:03:26;9.80;42.80
49861;DHT22;35761;48.826;9.238;2023-04-01T11:16:47;9.90;42.80
49861;DHT22;35761;48.826;9.238;2023-04-01T11:26:04;10.10;40.20
49861;DHT22;35761;48.826;9.238;2023-04-01T11:29:07;10.20;40.70
49861;DHT22;35761;48.826;9.238;2023-04-01T11:31:57;10.20;41.20
49861;DHT22;35761;48.826;9.238;2023-04-01T11:37:40;10.30;39.60
49861;DHT22;35761;48.826;9.238;2023-04-01T11:40:39;10.40;38.90
49861;DHT22;35761;48.826;9.238;2023-04-01T11:43:37;10.40;40.30
49861;DHT22;35761;48.826;9.238;2023-04-01T11:46:52;10.50;40.40
49861;DHT22;35761;48.826;9.238;2023-04-01T11:49:43;10.60;38.60
49861;DHT22;35761;48.826;9.238;2023-04-01T11:52:52;10.70;39.10
49861;DHT22;35761;48.826;9.238;2023-04-01T11:55:35;10.60;37.50
49861;DHT22;35761;48.826;9.238;2023-04-01T11:58:27;10.50;37.30
49861;DHT22;35761;48.826;9.238;2023-04-01T12:01:16;10.50;38.30
49861;DHT22;35761;48.826;9.238;2023-04-01T12:04:23;10.50;37.80
49861;DHT22;35761;48.826;9.238;2023-04-01T12:07:36;10.40;38.70
49861;DHT22;35761;48.826;9.238;2023-04-01T12:10:18;10.40;39.40
49861;DHT22;35761;48.826;9.238;2023-04-01T12:12:56;10.40;39.60
49861;DHT22;35761;48.826;9.238;2023-04-01T12:15:36;10.40;39.90
49861;DHT22;35761;48.826;9.238;2023-04-01T12:18:25;10.40;39.70
49861;DHT22;35761;48.826;9.238;2023-04-01T12:21:11;10.40;40.10
49861;DHT22;35761;48.826;9.238;2023-04-01T12:24:04;10.40;40.70
49861;DHT22;35761;48.826;9.238;2023-04-01T12:27:03;10.40;41.70
49861;DHT22;35761;48.826;9.238;2023-04-01T12:29:48;10.40;42.20
49861;DHT22;35761;48.826;9.238;2023-04-01T12:32:42;10.40;42.70
49861;DHT22;35761;48.826;9.238;2023-04-01T12:35:21;10.40;43.20
49861;DHT22;35761;48.826;9.238;2023-04-01T12:38:07;10.40;42.30
49861;DHT22;35761;48.826;9.238;2023-04-01T12:41:12;10.40;43.20
49861;DHT22;35761;48.826;9.238;2023-04-01T12:44:04;10.40;42.50
49861;DHT22;35761;48.826;9.238;2023-04-01T12:47:21;10.40;42.70
49861;DHT22;35761;48.826;9.238;2023-04-01T12:50:19;10.50;42.00
49861;DHT22;35761;48.826;9.238;2023-04-01T12:53:20;10.60;41.50
49861;DHT22;35761;48.826;9.238;2023-04-01T12:56:03;10.60;38.60
49861;DHT22;35761;48.826;9.238;2023-04-01T12:59:06;10.60;39.80
49861;DHT22;35761;48.826;9.238;2023-04-01T13:02:06;10.70;40.50
49861;DHT22;35761;48.826;9.238;2023-04-01T13:05:10;10.80;39.50
49861;DHT22;35761;48.826;9.238;2023-04-01T13:08:04;10.70;38.80
49861;DHT22;35761;48.826;9.238;2023-04-01T13:11:06;10.80;38.70
49861;DHT22;35761;48.826;9.238;2023-04-01T13:14:03;10.80;38.70
49861;DHT22;35761;48.826;9.238;2023-04-01T13:17:02;10.70;38.90
49861;DHT22;35761;48.826;9.238;2023-04-01T13:19:42;10.70;39.80
49861;DHT22;35761;48.826;9.238;2023-04-01T13:22:39;10.70;39.90
49861;DHT22;35761;48.826;9.238;2023-04-01T13:25:22;10.70;39.40
49861;DHT22;35761;48.826;9.238;2023-04-01T13:28:02;10.60;39.40
49861;DHT22;35761;48.826;9.238;2023-04-01T13:30:44;10.70;40.10
49861;DHT22;35761;48.826;9.238;2023-04-01T13:33:27;10.70;39.40
49861;DHT22;35761;48.826;9.238;2023-04-01T13:36:11;10.70;39.00
49861;DHT22;35761;48.826;9.238;2023-04-01T13:39:06;10.70;38.30
49861;DHT22;35761;48.826;9.238;2023-04-01T13:42:16;10.70;38.00
49861;DHT22;35761;48.826;9.238;2023-04-01T13:44:59;10.80;38.00
49861;DHT22;35761;48.826;9.238;2023-04-01T13:48:04;10.80;38.40
49861;DHT22;35761;48.826;9.238;2023-04-01T13:51:21;10.90;38.40
49861;DHT22;35761;48.826;9.238;2023-04-01T13:54:16;10.90;38.20
49861;DHT22;35761;48.826;9.238;2023-04-01T13:57:02;10.90;38.00
49861;DHT22;35761;48.826;9.238;2023-04-01T14:00:10;11.00;37.30
49861;DHT22;35761;48.826;9.238;2023-04-01T14:03:07;11.00;37.40
49861;DHT22;35761;48.826;9.238;2023-04-01T14:05:53;11.00;37.90
49861;DHT22;35761;48.826;9.238;2023-04-01T14:08:47;11.00;38.60
49861;DHT22;35761;48.826;9.238;2023-04-01T14:11:35;10.90;38.70
49861;DHT22;35761;48.826;9.238;2023-04-01T14:14:18;10.90;39.40
49861;DHT22;35761;48.826;9.238;2023-04-01T14:17:10;10.90;37.70
49861;DHT22;35761;48.826;9.238;2023-04-01T14:23:07;10.80;37.10
49861;DHT22;35761;48.826;9.238;2023-04-01T14:26:15;10.70;37.60
49861;DHT22;35761;48.826;9.238;2023-04-01T14:28:58;10.80;38.10
49861;DHT22;35761;48.826;9.238;2023-04-01T14:31:48;10.80;38.00
49861;DHT22;35761;48.826;9.238;2023-04-01T14:34:38;10.70;38.80
49861;DHT22;35761;48.826;9.238;2023-04-01T14:38:04;10.60;38.80
49861;DHT22;35761;48.826;9.238;2023-04-01T14:40:49;10.40;43.10
49861;DHT22;35761;48.826;9.238;2023-04-01T14:43:51;10.40;43.00
49861;DHT22;35761;48.826;9.238;2023-04-01T14:49:52;10.30;42.40
49861;DHT22;35761;48.826;9.238;2023-04-01T14:52:28;10.40;43.00
49861;DHT22;35761;48.826;9.238;2023-04-01T14:55:10;10.40;42.20
49861;DHT22;35761;48.826;9.238;2023-04-01T14:57:59;10.40;42.20
49861;DHT22;35761;48.826;9.238;2023-04-01T15:00:49;10.40;42.30
49861;DHT22;35761;48.826;9.238;2023-04-01T15:03:29;10.40;42.70
49861;DHT22;35761;48.826;9.238;2023-04-01T15:06:35;10.50;42.30
49861;DHT22;35761;48.826;9.238;2023-04-01T15:09:18;10.50;40.20
49861;DHT22;35761;48.826;9.238;2023-04-01T15:12:05;10.50;40.60
49861;DHT22;35761;48.826;9.238;2023-04-01T15:15:01;10.50;40.80
49861;DHT22;35761;48.826;9.238;2023-04-01T15:17:58;10.60;39.80
49861;DHT22;35761;48.826;9.238;2023-04-01T15:23:43;10.60;40.10
49861;DHT22;35761;48.826;9.238;2023-04-01T15:29:30;10.70;39.90
49861;DHT22;35761;48.826;9.238;2023-04-01T15:32:13;10.70;40.10
49861;DHT22;35761;48.826;9.238;2023-04-01T15:34:53;10.70;40.10
49861;DHT22;35761;48.826;9.238;2023-04-01T15:37:34;10.70;40.80
49861;DHT22;35761;48.826;9.238;2023-04-01T15:40:20;10.70;41.30
49861;DHT22;35761;48.826;9.238;2023-04-01T15:43:02;10.70;40.30
49861;DHT22;35761;48.826;9.238;2023-04-01T15:45:53;10.70;40.10
49861;DHT22;35761;48.826;9.238;2023-04-01T15:48:44;10.60;39.80
49861;DHT22;35761;48.826;9.238;2023-04-01T15:54:47;10.60;40.30
49861;DHT22;35761;48.826;9.238;2023-04-01T15:57:37;10.60;40.40
49861;DHT22;35761;48.826;9.238;2023-04-01T16:00:23;10.60;40.20
49861;DHT22;35761;48.826;9.238;2023-04-01T16:03:23;10.60;40.20
49861;DHT22;35761;48.826;9.238;2023-04-01T16:06:17;10.60;39.60
49861;DHT22;35761;48.826;9.238;2023-04-01T16:09:11;10.60;39.10
49861;DHT22;35761;48.826;9.238;2023-04-01T16:11:55;10.60;39.70
49861;DHT22;35761;48.826;9.238;2023-04-01T16:14:37;10.60;38.80
49861;DHT22;35761;48.826;9.238;2023-04-01T16:17:29;10.50;38.70
49861;DHT22;35761;48.826;9.238;2023-04-01T16:20:17;10.60;38.20
49861;DHT22;35761;48.826;9.238;2023-04-01T16:22:55;10.50;38.60
49861;DHT22;35761;48.826;9.238;2023-04-01T16:25:33;10.60;38.80
49861;DHT22;35761;48.826;9.238;2023-04-01T16:28:18;10.60;38.20
49861;DHT22;35761;48.826;9.238;2023-04-01T16:30:57;10.60;38.00
49861;DHT22;35761;48.826;9.238;2023-04-01T16:33:37;10.50;38.00
49861;DHT22;35761;48.826;9.238;2023-04-01T16:36:20;10.50;38.00
49861;DHT22;35761;48.826;9.238;2023-04-01T16:39:02;10.50;38.10
49861;DHT22;35761;48.826;9.238;2023-04-01T16:41:46;10.50;38.50
49861;DHT22;35761;48.826;9.238;2023-04-01T16:44:21;10.60;38.00
49861;DHT22;35761;48.826;9.238;2023-04-01T16:46:57;10.60;38.00
49861;DHT22;35761;48.826;9.238;2023-04-01T16:49:32;10.50;38.30
49861;DHT22;35761;48.826;9.238;2023-04-01T16:52:15;10.50;38.50
49861;DHT22;35761;48.826;9.238;2023-04-01T16:54:53;10.50;38.50
49861;DHT22;35761;48.826;9.238;2023-04-01T16:57:30;10.50;38.90
49861;DHT22;35761;48.826;9.238;2023-04-01T17:00:16;10.40;38.70
49861;DHT22;35761;48.826;9.238;2023-04-01T17:03:02;10.40;39.00
49861;DHT22;35761;48.826;9.238;2023-04-01T17:05:51;10.40;39.40
49861;DHT22;35761;48.826;9.238;2023-04-01T17:08:53;10.40;39.50
49861;DHT22;35761;48.826;9.238;2023-04-01T17:11:35;10.30;40.30
49861;DHT22;35761;48.826;9.238;2023-04-01T17:14:16;10.40;39.90
49861;DHT22;35761;48.826;9.238;2023-04-01T17:20:33;10.40;40.20
49861;DHT22;35761;48.826;9.238;2023-04-01T17:23:18;10.50;40.20
49861;DHT22;35761;48.826;9.238;2023-04-01T17:26:20;10.40;40.40
49861;DHT22;35761;48.826;9.238;2023-04-01T17:29:02;10.40;40.40
49861;DHT22;35761;48.826;9.238;2023-04-01T17:31:49;10.40;40.80
49861;DHT22;35761;48.826;9.238;2023-04-01T17:34:35;10.40;41.10
49861;DHT22;35761;48.826;9.238;2023-04-01T17:37:34;10.40;40.90
49861;DHT22;35761;48.826;9.238;2023-04-01T17:40:30;10.40;41.20
49861;DHT22;35761;48.826;9.238;2023-04-01T17:43:12;10.50;40.80
49861;DHT22;35761;48.826;9.238;2023-04-01T17:45:54;10.50;40.60
49861;DHT22;35761;48.826;9.238;2023-04-01T17:48:38;10.40;41.50
49861;DHT22;35761;48.826;9.238;2023-04-01T17:51:20;10.40;41.40
49861;DHT22;35761;48.826;9.238;2023-04-01T17:54:04;10.40;41.80
49861;DHT22;35761;48.826;9.238;2023-04-01T17:56:49;10.40;41.60
49861;DHT22;35761;48.826;9.238;2023-04-01T17:59:29;10.40;41.80
49861;DHT22;35761;48.826;9.238;2023-04-01T18:02:20;10.40;42.60
49861;DHT22;35761;48.826;9.238;2023-04-01T18:08:13;10.40;43.50
49861;DHT22;35761;48.826;9.238;2023-04-01T18:10:57;10.30;44.60
49861;DHT22;35761;48.826;9.238;2023-04-01T18:16:50;10.20;45.80
49861;DHT22;35761;48.826;9.238;2023-04-01T18:19:37;10.20;47.00
49861;DHT22;35761;48.826;9.238;2023-04-01T18:22:17;10.10;47.50
49861;DHT22;35761;48.826;9.238;2023-04-01T18:24:57;10.00;47.90
49861;DHT22;35761;48.826;9.238;2023-04-01T18:27:38;10.00;48.60
49861;DHT22;35761;48.826;9.238;2023-04-01T18:30:14;10.00;49.10
49861;DHT22;35761;48.826;9.238;2023-04-01T18:32:50;10.00;49.30
49861;DHT22;35761;48.826;9.238;2023-04-01T18:35:29;9.90;49.50
49861;DHT22;35761;48.826;9.238;2023-04-01T18:38:11;9.90;50.00
49861;DHT22;35761;48.826;9.238;2023-04-01T18:40:45;9.90;50.30
49861;DHT22;35761;48.826;9.238;2023-04-01T18:43:29;9.90;50.60
49861;DHT22;35761;48.826;9.238;2023-04-01T18:46:09;9.90;49.90
49861;DHT22;35761;48.826;9.238;2023-04-01T18:48:51;9.90;50.50
49861;DHT22;35761;48.826;9.238;2023-04-01T18:51:34;9.80;50.40
49861;DHT22;35761;48.826;9.238;2023-04-01T18:54:12;9.80;49.80
49861;DHT22;35761;48.826;9.238;2023-04-01T18:56:46;9.80;49.80
49861;DHT22;35761;48.826;9.238;2023-04-01T18:59:25;9.80;50.20